createdAt,value
2019-01-19T00:00:09.104Z,-1.10
2019-01-19T00:02:47.188Z,-1.00
2019-01-19T00:05:28.061Z,-0.90
2019-01-19T00:08:25.894Z,-0.80
2019-01-19T00:11:18.463Z,-0.70
2019-01-19T00:14:09.302Z,-0.70
2019-01-19T00:17:07.390Z,-0.60
2019-01-19T00:20:12.775Z,-0.60
2019-01-19T00:23:11.422Z,-0.60
2019-01-19T00:25:54.420Z,-0.60
2019-01-19T00:28:43.480Z,-0.60
2019-01-19T00:31:20.130Z,-0.60
2019-01-19T00:34:02.915Z,-0.60
2019-01-19T00:36:55.259Z,0.90
2019-01-19T00:39:52.029Z,-0.60
2019-01-19T00:42:27.235Z,-0.70
2019-01-19T00:45:52.395Z,-0.70
2019-01-19T00:48:34.870Z,-0.70
2019-01-19T00:51:34.140Z,-0.60
2019-01-19T00:54:35.308Z,-0.60
2019-01-19T00:57:23.382Z,-0.70
2019-01-19T00:59:55.833Z,-0.70
2019-01-19T01:02:56.490Z,-0.80
2019-01-19T01:05:36.145Z,-0.80
2019-01-19T01:08:32.155Z,-0.90
2019-01-19T01:11:08.699Z,-0.90
2019-01-19T01:14:20.085Z,-0.90
2019-01-19T01:16:57.308Z,-0.90
2019-01-19T01:19:46.543Z,-0.90
2019-01-19T01:23:45.650Z,-1.00
2019-01-19T01:26:10.456Z,-1.00
2019-01-19T01:28:58.637Z,-1.10
2019-01-19T01:31:43.158Z,-1.10
2019-01-19T01:35:07.434Z,-1.20
2019-01-19T01:37:50.647Z,-1.20
2019-01-19T01:48:12.730Z,-1.40
2019-01-19T01:51:33.173Z,-1.40
2019-01-19T01:55:03.666Z,-1.30
2019-01-19T01:57:52.757Z,-1.30
2019-01-19T02:01:01.737Z,-1.30
2019-01-19T02:04:10.559Z,-1.30
2019-01-19T02:10:50.268Z,-1.30
2019-01-19T02:13:50.397Z,-1.00
2019-01-19T02:17:21.597Z,-1.30
2019-01-19T02:20:45.154Z,-1.30
2019-01-19T02:22:51.475Z,-1.30
2019-01-19T02:29:48.000Z,-1.30
2019-01-19T02:32:44.939Z,-1.40
2019-01-19T02:39:07.255Z,-1.40
2019-01-19T02:42:08.103Z,-1.40
2019-01-19T02:52:40.873Z,-1.40
2019-01-19T02:55:47.977Z,-1.50
2019-01-19T02:59:34.481Z,-1.60
2019-01-19T03:02:21.316Z,-1.60
2019-01-19T03:05:15.846Z,-1.60
2019-01-19T03:08:01.462Z,-1.60
2019-01-19T03:10:52.182Z,-1.60
2019-01-19T03:13:40.100Z,-1.60
2019-01-19T03:16:27.226Z,-1.70
2019-01-19T03:19:08.246Z,-1.60
2019-01-19T03:22:05.070Z,-1.70
2019-01-19T03:24:56.141Z,-1.60
2019-01-19T03:27:43.953Z,-1.60
2019-01-19T03:30:37.594Z,-1.70
2019-01-19T03:33:23.172Z,-1.70
2019-01-19T03:36:11.122Z,-1.70
2019-01-19T03:39:02.923Z,-1.80
2019-01-19T03:41:40.779Z,-1.80
2019-01-19T03:44:43.943Z,-1.80
2019-01-19T03:47:29.088Z,-1.80
2019-01-19T03:50:15.474Z,-1.80
2019-01-19T03:52:46.557Z,-1.90
2019-01-19T03:55:37.154Z,-1.90
2019-01-19T03:58:10.429Z,-2.00
2019-01-19T04:00:52.978Z,-1.90
2019-01-19T04:03:46.827Z,-1.90
2019-01-19T04:06:24.796Z,-1.90
2019-01-19T04:09:11.148Z,-1.90
2019-01-19T04:11:49.057Z,-1.90
2019-01-19T04:14:22.048Z,-1.90
2019-01-19T04:17:08.794Z,-1.90
2019-01-19T04:19:45.124Z,-1.90
2019-01-19T04:22:33.244Z,-1.90
2019-01-19T04:25:16.302Z,-1.90
2019-01-19T04:27:44.881Z,-1.90
2019-01-19T04:30:13.591Z,-1.90
2019-01-19T04:32:42.265Z,-1.90
2019-01-19T04:35:10.973Z,-1.80
2019-01-19T04:37:39.887Z,-1.90
2019-01-19T04:40:09.311Z,-1.90
2019-01-19T04:42:38.738Z,-1.80
2019-01-19T04:45:07.497Z,-1.90
2019-01-19T04:47:36.235Z,-1.80
2019-01-19T04:50:05.013Z,-1.80
2019-01-19T04:52:34.019Z,-1.80
2019-01-19T04:55:02.668Z,-1.90
2019-01-19T04:57:31.314Z,-1.80
2019-01-19T04:59:59.991Z,-1.90
2019-01-19T05:02:28.873Z,-1.90
2019-01-19T05:04:57.811Z,-1.90
2019-01-19T05:07:26.443Z,-1.90
2019-01-19T05:09:55.072Z,-1.90
2019-01-19T05:12:23.728Z,-1.80
2019-01-19T05:14:52.337Z,-1.80
2019-01-19T05:17:20.967Z,-1.80
2019-01-19T05:19:49.566Z,-1.80
2019-01-19T05:22:18.173Z,-1.80
2019-01-19T05:24:46.786Z,-1.70
2019-01-19T05:27:15.437Z,-1.70
2019-01-19T05:29:44.069Z,-1.70
2019-01-19T05:32:13.689Z,-1.70
2019-01-19T05:34:42.401Z,-1.70
2019-01-19T05:37:11.103Z,-1.70
2019-01-19T05:39:39.698Z,-1.70
2019-01-19T05:42:08.419Z,-1.80
2019-01-19T05:44:44.896Z,-1.70
2019-01-19T05:47:13.949Z,-1.80
2019-01-19T05:49:42.857Z,-1.70
2019-01-19T05:52:11.525Z,-1.80
2019-01-19T05:54:40.167Z,-1.80
2019-01-19T05:57:08.770Z,-1.80
2019-01-19T05:59:37.372Z,-1.80
2019-01-19T06:02:06.041Z,-1.80
2019-01-19T06:04:34.638Z,-1.80
2019-01-19T06:07:03.286Z,-1.80
2019-01-19T06:09:32.176Z,-1.80
2019-01-19T06:12:00.869Z,-1.80
2019-01-19T06:14:29.484Z,-1.90
2019-01-19T06:16:58.462Z,-1.80
2019-01-19T06:19:27.448Z,-1.90
2019-01-19T06:21:58.284Z,-1.90
2019-01-19T06:24:26.904Z,-1.90
2019-01-19T06:26:55.504Z,-1.90
2019-01-19T06:29:24.202Z,-1.90
2019-01-19T06:31:53.132Z,-1.90
2019-01-19T06:34:21.749Z,-1.90
2019-01-19T06:36:54.832Z,-1.90
2019-01-19T06:39:20.790Z,-2.00
2019-01-19T06:41:49.362Z,-2.00
2019-01-19T06:44:18.003Z,-2.00
2019-01-19T06:46:46.565Z,-2.00
2019-01-19T06:49:15.191Z,-2.00
2019-01-19T06:51:43.778Z,-2.00
2019-01-19T06:54:13.164Z,-2.00
2019-01-19T06:56:42.014Z,-2.00
2019-01-19T06:59:17.389Z,-2.00
2019-01-19T07:01:41.233Z,-2.00
2019-01-19T07:04:09.915Z,-2.00
2019-01-19T07:06:38.482Z,-2.00
2019-01-19T07:09:07.494Z,-2.00
2019-01-19T07:11:36.309Z,-2.00
2019-01-19T07:14:04.969Z,-2.00
2019-01-19T07:16:33.598Z,-2.00
2019-01-19T07:19:02.532Z,-2.00
2019-01-19T07:21:31.465Z,-2.00
2019-01-19T07:24:00.150Z,-2.00
2019-01-19T07:26:28.741Z,-2.00
2019-01-19T07:28:57.360Z,-1.90
2019-01-19T07:31:25.996Z,-1.90
2019-01-19T07:33:54.663Z,-1.90
2019-01-19T07:36:23.637Z,-1.90
2019-01-19T07:38:52.257Z,-1.80
2019-01-19T07:41:21.103Z,-1.80
2019-01-19T07:43:49.800Z,-1.70
2019-01-19T07:46:19.247Z,-1.60
2019-01-19T07:48:48.162Z,-1.60
2019-01-19T07:51:16.852Z,-1.50
2019-01-19T07:53:45.544Z,-1.40
2019-01-19T07:56:14.113Z,-1.40
2019-01-19T07:58:43.083Z,-1.30
2019-01-19T08:01:11.795Z,-1.20
2019-01-19T08:03:40.466Z,-1.20
2019-01-19T08:06:09.244Z,-1.00
2019-01-19T08:08:37.861Z,-0.90
2019-01-19T08:11:06.497Z,-0.90
2019-01-19T08:13:35.399Z,-0.70
2019-01-19T08:16:04.061Z,-0.70
2019-01-19T08:18:32.688Z,-0.60
2019-01-19T08:21:01.300Z,-0.40
2019-01-19T08:23:29.940Z,-0.30
2019-01-19T08:25:58.865Z,-0.20
2019-01-19T08:28:27.729Z,0.00
2019-01-19T08:30:56.310Z,0.20
2019-01-19T08:33:24.906Z,0.30
2019-01-19T08:35:53.751Z,0.30
2019-01-19T08:38:22.483Z,0.50
2019-01-19T08:40:51.304Z,0.80
2019-01-19T08:43:25.684Z,1.40
2019-01-19T08:45:54.557Z,2.10
2019-01-19T08:48:24.495Z,3.30
2019-01-19T08:50:54.099Z,4.40
2019-01-19T08:53:23.726Z,5.50
2019-01-19T08:55:53.375Z,6.30
2019-01-19T08:58:23.015Z,7.20
2019-01-19T09:00:52.935Z,7.70
2019-01-19T09:03:22.621Z,8.20
2019-01-19T09:05:52.306Z,9.20
2019-01-19T09:08:22.271Z,10.00
2019-01-19T09:10:52.148Z,10.50
2019-01-19T09:13:21.822Z,10.90
2019-01-19T09:15:54.297Z,11.80
2019-01-19T09:18:24.141Z,12.70
2019-01-19T09:20:54.085Z,13.20
2019-01-19T09:23:46.311Z,13.60
2019-01-19T09:26:16.037Z,14.10
2019-01-19T09:28:45.918Z,13.60
2019-01-19T09:31:15.698Z,13.40
2019-01-19T09:33:45.324Z,13.70
2019-01-19T09:36:15.106Z,14.00
2019-01-19T09:38:44.717Z,14.10
2019-01-19T09:41:14.378Z,14.30
2019-01-19T09:43:44.044Z,15.20
2019-01-19T09:46:14.288Z,16.20
2019-01-19T09:48:44.062Z,17.50
2019-01-19T09:51:14.558Z,18.20
2019-01-19T09:53:44.879Z,18.90
2019-01-19T09:56:14.633Z,19.00
2019-01-19T09:58:44.215Z,18.60
2019-01-19T10:01:14.046Z,18.00
2019-01-19T10:03:43.763Z,18.40
2019-01-19T10:06:13.419Z,18.40
2019-01-19T10:08:43.038Z,17.70
2019-01-19T10:11:12.934Z,17.60
2019-01-19T10:13:42.553Z,18.30
2019-01-19T10:16:12.261Z,19.20
2019-01-19T10:18:42.172Z,19.80
2019-01-19T10:21:11.816Z,19.50
2019-01-19T10:23:41.406Z,19.50
2019-01-19T10:26:11.166Z,19.50
2019-01-19T10:28:41.759Z,18.00
2019-01-19T10:31:11.724Z,16.70
2019-01-19T10:33:41.545Z,16.20
2019-01-19T10:36:11.292Z,16.40
2019-01-19T10:38:41.376Z,17.50
2019-01-19T10:41:11.068Z,17.70
2019-01-19T10:43:40.919Z,18.00
2019-01-19T10:46:10.694Z,18.30
2019-01-19T10:48:40.554Z,18.40
2019-01-19T10:51:10.276Z,19.20
2019-01-19T10:53:40.070Z,19.80
2019-01-19T10:56:09.842Z,19.80
2019-01-19T10:58:39.508Z,20.10
2019-01-19T11:01:09.226Z,19.80
2019-01-19T11:03:40.195Z,19.30
2019-01-19T11:06:10.163Z,18.90
2019-01-19T11:08:40.097Z,19.00
2019-01-19T11:11:17.207Z,19.60
2019-01-19T11:13:46.869Z,19.50
2019-01-19T11:16:17.232Z,19.20
2019-01-19T11:18:46.922Z,19.30
2019-01-19T11:21:26.835Z,18.60
2019-01-19T11:23:56.768Z,16.90
2019-01-19T11:26:26.499Z,16.90
2019-01-19T11:28:56.506Z,16.70
2019-01-19T11:31:26.145Z,17.40
2019-01-19T11:33:55.792Z,18.10
2019-01-19T11:36:25.477Z,18.10
2019-01-19T11:38:55.049Z,16.40
2019-01-19T11:41:24.641Z,13.70
2019-01-19T11:43:54.252Z,11.00
2019-01-19T11:46:23.849Z,9.50
2019-01-19T11:48:53.713Z,8.70
2019-01-19T11:51:23.273Z,8.20
2019-01-19T11:53:53.852Z,7.70
2019-01-19T11:56:23.495Z,7.40
2019-01-19T11:58:53.549Z,7.10
2019-01-19T12:01:23.440Z,6.80
2019-01-19T12:03:53.163Z,6.60
2019-01-19T12:06:25.657Z,6.50
2019-01-19T12:08:56.562Z,6.20
2019-01-19T12:11:27.267Z,6.10
2019-01-19T12:13:57.659Z,5.90
2019-01-19T12:16:28.228Z,5.70
2019-01-19T12:18:58.536Z,5.50
2019-01-19T12:21:30.819Z,5.40
2019-01-19T12:24:01.330Z,5.30
2019-01-19T12:26:31.227Z,5.00
2019-01-19T12:29:00.338Z,5.00
2019-01-19T12:31:30.103Z,5.00
2019-01-19T12:33:58.778Z,5.00
2019-01-19T12:36:27.436Z,4.80
2019-01-19T12:38:56.032Z,4.80
2019-01-19T12:41:25.465Z,4.90
2019-01-19T12:43:55.120Z,4.90
2019-01-19T12:46:24.653Z,4.90
2019-01-19T12:48:54.290Z,4.80
2019-01-19T12:51:23.849Z,4.80
2019-01-19T12:53:53.413Z,4.70
2019-01-19T12:56:23.159Z,4.70
2019-01-19T12:58:52.752Z,4.70
2019-01-19T13:01:23.260Z,4.60
2019-01-19T13:03:52.107Z,4.50
2019-01-19T13:06:38.643Z,4.40
2019-01-19T13:09:26.789Z,4.40
2019-01-19T13:12:23.858Z,4.30
2019-01-19T13:14:59.635Z,4.30
2019-01-19T13:17:38.416Z,4.30
2019-01-19T13:20:16.537Z,4.30
2019-01-19T13:22:51.710Z,4.20
2019-01-19T13:25:39.818Z,4.10
2019-01-19T13:28:37.084Z,4.00
2019-01-19T13:31:33.709Z,4.00
2019-01-19T13:34:15.449Z,3.90
2019-01-19T13:36:53.314Z,3.80
2019-01-19T13:39:31.638Z,3.80
2019-01-19T13:42:25.291Z,3.70
2019-01-19T13:45:32.146Z,3.60
2019-01-19T13:48:27.781Z,3.60
2019-01-19T13:51:09.414Z,3.60
2019-01-19T13:54:03.226Z,3.80
2019-01-19T13:57:02.066Z,3.50
2019-01-19T14:00:10.872Z,3.50
2019-01-19T14:03:27.160Z,3.50
2019-01-19T14:06:26.401Z,3.50
2019-01-19T14:09:20.409Z,3.40
2019-01-19T14:12:00.259Z,3.30
2019-01-19T14:14:34.289Z,3.20
2019-01-19T14:17:20.464Z,3.20
2019-01-19T14:20:07.405Z,3.10
2019-01-19T14:22:41.304Z,3.00
2019-01-19T14:25:41.293Z,3.00
2019-01-19T14:28:21.353Z,2.90
2019-01-19T14:31:07.844Z,2.80
2019-01-19T14:33:40.318Z,2.80
2019-01-19T14:36:14.602Z,2.70
2019-01-19T14:39:02.409Z,2.70
2019-01-19T14:41:52.932Z,2.60
2019-01-19T14:44:39.540Z,2.60
2019-01-19T14:47:27.351Z,2.50
2019-01-19T14:50:27.202Z,2.50
2019-01-19T14:53:17.765Z,2.40
2019-01-19T14:55:53.402Z,2.30
2019-01-19T14:58:28.625Z,2.20
2019-01-19T15:01:22.527Z,2.10
2019-01-19T15:04:04.201Z,2.10
2019-01-19T15:06:50.794Z,2.00
2019-01-19T15:09:40.269Z,1.90
2019-01-19T15:12:22.859Z,1.90
2019-01-19T15:15:07.151Z,1.80
2019-01-19T15:17:46.833Z,1.80
2019-01-19T15:20:41.006Z,1.70
2019-01-19T15:23:47.410Z,1.60
2019-01-19T15:26:34.364Z,1.60
2019-01-19T15:29:20.907Z,1.60
2019-01-19T15:32:01.355Z,1.50
2019-01-19T15:34:42.660Z,1.40
2019-01-19T15:37:16.224Z,1.30
2019-01-19T15:39:57.952Z,1.30
2019-01-19T15:42:58.074Z,1.20
2019-01-19T15:45:32.342Z,1.10
2019-01-19T15:48:12.134Z,1.00
2019-01-19T15:50:58.946Z,1.00
2019-01-19T15:53:36.721Z,1.00
2019-01-19T15:56:24.766Z,1.00
2019-01-19T15:58:57.757Z,0.90
2019-01-19T16:01:40.602Z,0.90
2019-01-19T16:04:23.894Z,0.80
2019-01-19T16:07:14.629Z,0.80
2019-01-19T16:10:01.130Z,0.80
2019-01-19T16:12:36.185Z,0.80
2019-01-19T16:15:11.807Z,0.80
2019-01-19T16:18:03.003Z,-0.80
2019-01-19T16:20:49.870Z,0.70
2019-01-19T16:23:37.714Z,0.70
2019-01-19T16:26:24.397Z,0.80
2019-01-19T16:29:18.448Z,0.80
2019-01-19T16:32:09.227Z,0.80
2019-01-19T16:34:45.173Z,0.70
2019-01-19T16:37:46.345Z,0.70
2019-01-19T16:40:22.385Z,0.60
2019-01-19T16:43:09.507Z,0.60
2019-01-19T16:45:48.829Z,0.50
2019-01-19T16:48:30.278Z,0.50
2019-01-19T16:51:17.366Z,0.50
2019-01-19T16:53:58.298Z,0.50
2019-01-19T16:56:46.217Z,0.50
2019-01-19T16:59:17.832Z,0.50
2019-01-19T17:02:14.647Z,0.40
2019-01-19T17:04:47.204Z,0.40
2019-01-19T17:07:47.694Z,0.40
2019-01-19T17:10:19.992Z,0.40
2019-01-19T17:13:06.746Z,0.40
2019-01-19T17:15:54.602Z,0.40
2019-01-19T17:18:51.805Z,0.40
2019-01-19T17:21:42.671Z,0.40
2019-01-19T17:24:30.874Z,0.30
2019-01-19T17:27:17.601Z,0.30
2019-01-19T17:30:04.176Z,0.30
2019-01-19T17:32:36.661Z,0.30
2019-01-19T17:35:24.046Z,0.30
2019-01-19T17:38:01.991Z,0.20
2019-01-19T17:40:53.690Z,0.20
2019-01-19T17:43:40.079Z,0.20
2019-01-19T17:46:18.876Z,0.20
2019-01-19T17:49:04.469Z,0.20
2019-01-19T17:51:51.063Z,0.20
2019-01-19T17:54:53.920Z,0.10
2019-01-19T17:57:30.550Z,0.10
2019-01-19T18:00:30.391Z,0.00
2019-01-19T18:03:11.708Z,0.00
2019-01-19T18:06:08.774Z,0.00
2019-01-19T18:08:45.633Z,0.00
2019-01-19T18:11:51.862Z,-0.10
2019-01-19T18:15:05.910Z,-0.10
2019-01-19T18:17:45.830Z,-0.10
2019-01-19T18:20:51.686Z,-0.10
2019-01-19T18:23:28.394Z,-0.10
2019-01-19T18:26:07.393Z,-0.10
2019-01-19T18:28:41.518Z,-0.10
2019-01-19T18:31:22.752Z,-0.10
2019-01-19T18:34:01.683Z,-0.20
2019-01-19T18:37:03.074Z,-0.20
2019-01-19T18:39:57.724Z,-0.30
2019-01-19T18:42:57.821Z,-0.30
2019-01-19T18:45:46.735Z,-0.30
2019-01-19T18:48:23.739Z,-0.30
2019-01-19T18:50:59.031Z,-0.30
2019-01-19T18:53:53.811Z,-0.30
2019-01-19T18:56:42.127Z,-0.40
2019-01-19T18:59:29.382Z,-0.50
2019-01-19T19:02:17.657Z,-0.50
2019-01-19T19:04:52.811Z,-0.40
2019-01-19T19:07:47.777Z,-0.40
2019-01-19T19:10:23.754Z,-0.40
2019-01-19T19:12:58.156Z,-0.50
2019-01-19T19:15:36.043Z,-0.50
2019-01-19T19:18:33.666Z,-0.50
2019-01-19T19:21:23.736Z,-0.60
2019-01-19T19:24:07.281Z,-0.60
2019-01-19T19:27:04.356Z,-0.60
2019-01-19T19:29:37.927Z,-0.60
2019-01-19T19:32:23.522Z,-0.60
2019-01-19T19:35:11.720Z,-0.60
2019-01-19T19:38:08.974Z,-0.70
2019-01-19T19:41:04.128Z,-0.70
2019-01-19T19:43:41.276Z,-0.70
2019-01-19T19:46:33.216Z,-0.70
2019-01-19T19:49:08.655Z,-0.70
2019-01-19T19:52:00.001Z,-0.60
2019-01-19T19:54:26.616Z,-0.60
2019-01-19T20:00:06.656Z,-0.70
2019-01-19T20:02:40.418Z,-0.70
2019-01-19T20:05:20.229Z,-0.70
2019-01-19T20:07:55.113Z,-0.80
2019-01-19T20:10:25.826Z,-0.70
2019-01-19T20:12:54.593Z,-0.70
2019-01-19T20:15:36.224Z,-0.80
2019-01-19T20:18:05.240Z,-0.80
2019-01-19T20:20:33.871Z,-0.80
2019-01-19T20:23:04.592Z,-0.90
2019-01-19T20:25:33.191Z,-0.90
2019-01-19T20:28:12.937Z,-0.90
2019-01-19T20:30:42.183Z,-0.90
2019-01-19T20:33:11.115Z,-0.90
2019-01-19T20:35:46.361Z,-1.00
2019-01-19T20:38:24.639Z,-1.00
2019-01-19T20:40:53.326Z,-1.00
2019-01-19T20:43:30.733Z,-1.00
2019-01-19T20:46:17.469Z,-1.10
2019-01-19T20:48:46.812Z,-1.10
2019-01-19T20:51:18.827Z,-1.10
2019-01-19T20:53:50.844Z,-1.20
2019-01-19T20:56:19.431Z,-1.10
2019-01-19T20:58:48.183Z,-1.20
2019-01-19T21:01:16.736Z,-1.20
2019-01-19T21:03:45.391Z,-1.10
2019-01-19T21:06:16.475Z,-1.10
2019-01-19T21:08:46.511Z,-1.20
2019-01-19T21:11:15.478Z,-1.20
2019-01-19T21:13:44.009Z,-1.20
2019-01-19T21:16:12.862Z,-1.30
2019-01-19T21:18:41.887Z,-1.30
2019-01-19T21:21:13.799Z,-1.30
2019-01-19T21:23:44.155Z,-1.30
2019-01-19T21:26:16.300Z,-1.30
2019-01-19T21:28:45.674Z,-1.20
2019-01-19T21:31:16.694Z,-1.30
2019-01-19T21:33:45.536Z,-1.30
2019-01-19T21:36:15.963Z,-1.30
2019-01-19T21:38:44.698Z,-1.30
2019-01-19T21:41:13.358Z,-1.30
2019-01-19T21:43:44.222Z,-1.30
2019-01-19T21:46:13.237Z,-1.30
2019-01-19T21:48:46.021Z,-1.30
2019-01-19T21:51:17.056Z,-1.30
2019-01-19T21:53:45.824Z,-1.30
2019-01-19T21:56:14.728Z,-1.30
2019-01-19T21:58:43.709Z,-1.20
2019-01-19T22:01:12.649Z,-1.20
2019-01-19T22:03:44.173Z,-1.20
2019-01-19T22:06:15.978Z,-1.20
2019-01-19T22:08:44.868Z,-1.20
2019-01-19T22:11:15.388Z,-1.20
2019-01-19T22:13:46.867Z,-1.20
2019-01-19T22:16:15.989Z,-1.20
2019-01-19T22:18:47.702Z,-1.20
2019-01-19T22:21:19.515Z,-1.20
2019-01-19T22:23:48.483Z,-1.20
2019-01-19T22:26:19.888Z,-1.20
2019-01-19T22:28:50.569Z,-1.20
2019-01-19T22:31:19.439Z,-1.20
2019-01-19T22:33:49.130Z,-1.20
2019-01-19T22:36:19.997Z,-1.20
2019-01-19T22:38:54.740Z,-1.20
2019-01-19T22:41:25.561Z,-1.20
2019-01-19T22:43:55.923Z,-1.20
2019-01-19T22:46:29.371Z,-1.20
2019-01-19T22:49:02.949Z,-1.30
2019-01-19T22:51:32.239Z,-1.40
2019-01-19T22:54:09.242Z,-1.50
2019-01-19T22:56:44.924Z,-1.50
2019-01-19T22:59:16.264Z,-1.50
2019-01-19T23:01:47.731Z,-1.50
2019-01-19T23:04:16.483Z,-1.50
2019-01-19T23:06:45.630Z,-1.60
2019-01-19T23:09:15.111Z,-1.60
2019-01-19T23:11:43.927Z,-1.70
2019-01-19T23:14:12.997Z,-1.70
2019-01-19T23:16:41.907Z,-1.70
2019-01-19T23:19:10.678Z,-1.60
2019-01-19T23:21:39.539Z,-1.60
2019-01-19T23:24:08.369Z,-1.70
2019-01-19T23:26:37.306Z,-1.80
2019-01-19T23:29:06.164Z,-1.80
2019-01-19T23:31:35.040Z,-1.80
2019-01-19T23:34:04.041Z,-1.80
2019-01-19T23:36:33.078Z,-1.90
2019-01-19T23:39:01.916Z,-1.90
2019-01-19T23:41:30.755Z,-1.90
2019-01-19T23:43:59.718Z,-2.00
2019-01-19T23:46:28.632Z,-2.00
2019-01-19T23:48:57.544Z,-2.00
2019-01-19T23:51:26.321Z,-1.90
2019-01-19T23:53:55.115Z,-1.80
2019-01-19T23:56:24.117Z,-1.90
2019-01-19T23:58:52.951Z,-2.00
